Pacific Journey — 3FFE — position and weather

sailwx.info

Track history (hours):
 
Tides and Currents Weather Stations Pressure Air Temp Water Temp Dewpoint Dewpoint Depression Visibility Wind Speed Wind Dir Waves Ship Positions

Pacific Journey

Last reported at 2017-Apr-06 19:49 UTC. Time now 2017-Apr-25 00:43 UTC.
Position N 17°38' W 060°53'.
Warning: this ship's position is 18 days out of date.

Length 180 m; draft 10.3 m.

Type: Cargo ship. MMSI: 371467000.

Date/timePositionNaut miles runAvg speedWind from/ knotsBaromVisibWave heightAir tempDewpointWater temp
2017-Apr-06 19:49N 17°38' W 060°53'410.8
2017-Apr-06 19:27N 17°41' W 060°56'1210.6
2017-Apr-06 18:20N 17°48' W 061°06'410.7
2017-Apr-06 17:59N 17°51' W 061°09'510.7
2017-Apr-06 17:30N 17°54' W 061°13'710.9
2017-Apr-06 16:54N 17°59' W 061°18'511.1
2017-Apr-06 16:29N 18°02' W 061°22'  
2017-Apr-01 00:45N 27°37' W 082°47'412.8
2017-Apr-01 00:25N 27°37' W 082°42'811.8
2017-Mar-31 23:46N 27°41' W 082°35'411.6
2017-Mar-31 23:28N 27°43' W 082°32'510.3
2017-Mar-31 23:00N 27°48' W 082°30'4 8.2
2017-Mar-31 22:30N 27°48' W 082°25'1 1.0
2017-Mar-31 21:55N 27°48' W 082°24'0 0.0
2017-Mar-31 21:28N 27°48' W 082°24'0 0.0
2017-Mar-31 20:58N 27°48' W 082°24'0 0.0
2017-Mar-31 20:28N 27°48' W 082°24'0 0.0
2017-Mar-31 19:58N 27°48' W 082°24'0 0.0
2017-Mar-31 19:25N 27°48' W 082°24'0 0.0
2017-Mar-31 18:58N 27°48' W 082°24'0 0.0
2017-Mar-31 18:28N 27°48' W 082°24'0 0.0
2017-Mar-31 17:58N 27°48' W 082°24'0 0.0
2017-Mar-31 17:28N 27°48' W 082°24'0 0.0
2017-Mar-31 16:58N 27°48' W 082°24'0 0.0
2017-Mar-31 16:28N 27°48' W 082°24'0 0.0
2017-Mar-31 15:58N 27°48' W 082°24'0 0.0
2017-Mar-31 15:28N 27°48' W 082°24'0 0.0
2017-Mar-31 14:58N 27°48' W 082°24'0 0.0
2017-Mar-31 13:58N 27°48' W 082°24'0 0.0
2017-Mar-31 13:28N 27°48' W 082°24'0 0.0
2017-Mar-31 12:58N 27°48' W 082°24'0 0.0
2017-Mar-31 12:28N 27°48' W 082°24'0 0.0
2017-Mar-31 11:58N 27°48' W 082°24'0 0.0
2017-Mar-31 11:28N 27°48' W 082°24'0 0.0
2017-Mar-31 10:58N 27°48' W 082°24'0 0.0
2017-Mar-31 10:28N 27°48' W 082°24'0 0.0
2017-Mar-31 09:58N 27°48' W 082°24'0 0.0
2017-Mar-31 09:25N 27°48' W 082°24'0 0.0
2017-Mar-31 08:58N 27°48' W 082°24'0 0.0
2017-Mar-31 08:28N 27°48' W 082°24'0 0.0
2017-Mar-31 07:58N 27°48' W 082°24'0 0.0
2017-Mar-31 07:28N 27°48' W 082°24'0 0.0
2017-Mar-31 06:58N 27°48' W 082°24'0 0.0
2017-Mar-31 06:28N 27°48' W 082°24'0 0.0
2017-Mar-31 05:55N 27°48' W 082°24'0 0.0
2017-Mar-31 05:28N 27°48' W 082°24'0 0.0
2017-Mar-31 04:58N 27°48' W 082°24'0 0.0
2017-Mar-31 04:31N 27°48' W 082°24'0 0.0
2017-Mar-31 03:31N 27°48' W 082°24'0 0.0
2017-Mar-31 02:31N 27°48' W 082°24'0 0.0
2017-Mar-31 01:31N 27°48' W 082°24'0 0.0
2017-Mar-31 00:31N 27°48' W 082°24'0 0.0
2017-Mar-30 23:31N 27°48' W 082°24'0 0.0
2017-Mar-30 22:31N 27°48' W 082°24'0 0.0
2017-Mar-30 21:31N 27°48' W 082°24'0 0.0
2017-Mar-30 20:31N 27°48' W 082°24'0 0.0
2017-Mar-30 19:31N 27°48' W 082°24'0 0.0
2017-Mar-30 18:31N 27°48' W 082°24'0 0.0
2017-Mar-30 17:31N 27°48' W 082°24'0 0.0
2017-Mar-30 16:31N 27°48' W 082°24'0 0.0
2017-Mar-30 15:31N 27°48' W 082°24'0 0.0
2017-Mar-30 14:31N 27°48' W 082°24'0 0.0
2017-Mar-30 13:31N 27°48' W 082°24'0 0.0
2017-Mar-30 12:31N 27°48' W 082°24'0 0.0
2017-Mar-30 11:31N 27°48' W 082°24'0 0.0
2017-Mar-30 10:31N 27°48' W 082°24'0 0.0
2017-Mar-30 09:31N 27°48' W 082°24'0 0.2
2017-Mar-30 08:33N 27°48' W 082°25'2 2.1
2017-Mar-30 07:33N 27°49' W 082°27'4 3.5
2017-Mar-30 06:33N 27°51' W 082°24'0 0.1
2017-Mar-30 05:33N 27°51' W 082°24'0 0.0
2017-Mar-30 04:33N 27°51' W 082°24'0 0.0
2017-Mar-30 03:33N 27°51' W 082°24'0 0.0
2017-Mar-30 02:33N 27°51' W 082°24'0 0.0
2017-Mar-30 01:33N 27°51' W 082°24'0 0.0
2017-Mar-30 00:33N 27°51' W 082°24'0 0.0
2017-Mar-29 23:33N 27°51' W 082°24'0 0.0
2017-Mar-29 22:33N 27°51' W 082°24'0 0.0
2017-Mar-29 21:33N 27°51' W 082°24'0 0.0
2017-Mar-29 20:33N 27°51' W 082°24'0 0.0
2017-Mar-29 19:33N 27°51' W 082°24'0 0.0
2017-Mar-29 18:33N 27°51' W 082°24'0 0.0
2017-Mar-29 17:33N 27°51' W 082°24'0 0.0
2017-Mar-29 16:27N 27°51' W 082°24'0 0.0
2017-Mar-29 15:33N 27°51' W 082°24'0 0.0
2017-Mar-29 14:33N 27°51' W 082°24'0 0.0
2017-Mar-29 13:33N 27°51' W 082°24'0 0.0
2017-Mar-29 12:33N 27°51' W 082°24'0 0.0
2017-Mar-29 11:33N 27°51' W 082°24'0 0.0
2017-Mar-29 10:33N 27°51' W 082°24'0 0.0
2017-Mar-29 09:30N 27°51' W 082°24'0 0.0
2017-Mar-29 08:33N 27°51' W 082°24'0 0.0
2017-Mar-29 07:33N 27°51' W 082°24'0 0.0
2017-Mar-29 06:33N 27°51' W 082°24'0 0.0
2017-Mar-29 05:33N 27°51' W 082°24'0 0.0
2017-Mar-29 04:33N 27°51' W 082°24'0 0.0
2017-Mar-29 03:30N 27°51' W 082°24'0 0.0
2017-Mar-29 02:33N 27°51' W 082°24'0 0.0
2017-Mar-29 01:33N 27°51' W 082°24'0 0.0
2017-Mar-29 00:33N 27°51' W 082°24'0 0.0
2017-Mar-28 23:33N 27°51' W 082°24'0 0.0
2017-Mar-28 22:33N 27°51' W 082°24'0 0.0
2017-Mar-28 21:33N 27°51' W 082°24'0 0.0
2017-Mar-28 20:30N 27°51' W 082°24'0 0.0
2017-Mar-28 19:33N 27°51' W 082°24'0 0.0
2017-Mar-28 18:33N 27°51' W 082°24'0 0.0
2017-Mar-28 17:33N 27°51' W 082°24'0 0.0
2017-Mar-28 16:33N 27°51' W 082°24'0 0.0
2017-Mar-28 15:33N 27°51' W 082°24'0 0.0
2017-Mar-28 14:33N 27°51' W 082°24'0 0.0
2017-Mar-28 13:33N 27°51' W 082°24'0 0.0
2017-Mar-28 12:33N 27°51' W 082°24'0 0.0
2017-Mar-28 11:33N 27°51' W 082°24'0 0.0
2017-Mar-28 10:33N 27°51' W 082°24'0 0.0
2017-Mar-28 09:33N 27°51' W 082°24'0 0.0
2017-Mar-28 08:33N 27°51' W 082°24'0 0.0
2017-Mar-28 07:33N 27°51' W 082°24'0 0.0
2017-Mar-28 06:33N 27°51' W 082°24'0 0.0
2017-Mar-28 05:33N 27°51' W 082°24'0 0.0
2017-Mar-28 04:33N 27°51' W 082°24'0 0.0
2017-Mar-28 03:33N 27°51' W 082°24'0 0.0
2017-Mar-28 02:33N 27°51' W 082°24'0 0.0
2017-Mar-28 01:33N 27°51' W 082°24'0 0.0
2017-Mar-28 00:33N 27°51' W 082°24'0 0.0
2017-Mar-27 23:33N 27°51' W 082°24'0 0.0
2017-Mar-27 22:33N 27°51' W 082°24'0 0.0
2017-Mar-27 21:33N 27°51' W 082°24'0 0.0
2017-Mar-27 20:33N 27°51' W 082°24'  
Track history (hours):
 
Tides and Currents Weather Stations Pressure Air Temp Water Temp Dewpoint Dewpoint Depression Visibility Wind Speed Wind Dir Waves Ship Positions

Pacific Journey

Last reported at 2017-Apr-06 19:49 UTC. Time now 2017-Apr-25 00:43 UTC.
Position N 17°38' W 060°53'.
Warning: this ship's position is 18 days out of date.

Length 180 m; draft 10.3 m.

Type: Cargo ship. MMSI: 371467000.

Date/timePositionNaut miles runAvg speedWind from/ knotsBaromVisibWave heightAir tempDewpointWater temp
2017-Apr-06 19:49N 17°38' W 060°53'410.8
2017-Apr-06 19:27N 17°41' W 060°56'1210.6
2017-Apr-06 18:20N 17°48' W 061°06'410.7
2017-Apr-06 17:59N 17°51' W 061°09'510.7
2017-Apr-06 17:30N 17°54' W 061°13'710.9
2017-Apr-06 16:54N 17°59' W 061°18'511.1
2017-Apr-06 16:29N 18°02' W 061°22'  
2017-Apr-01 00:45N 27°37' W 082°47'412.8
2017-Apr-01 00:25N 27°37' W 082°42'811.8
2017-Mar-31 23:46N 27°41' W 082°35'411.6
2017-Mar-31 23:28N 27°43' W 082°32'510.3
2017-Mar-31 23:00N 27°48' W 082°30'4 8.2
2017-Mar-31 22:30N 27°48' W 082°25'1 1.0
2017-Mar-31 21:55N 27°48' W 082°24'0 0.0
2017-Mar-31 21:28N 27°48' W 082°24'0 0.0
2017-Mar-31 20:58N 27°48' W 082°24'0 0.0
2017-Mar-31 20:28N 27°48' W 082°24'0 0.0
2017-Mar-31 19:58N 27°48' W 082°24'0 0.0
2017-Mar-31 19:25N 27°48' W 082°24'0 0.0
2017-Mar-31 18:58N 27°48' W 082°24'0 0.0
2017-Mar-31 18:28N 27°48' W 082°24'0 0.0
2017-Mar-31 17:58N 27°48' W 082°24'0 0.0
2017-Mar-31 17:28N 27°48' W 082°24'0 0.0
2017-Mar-31 16:58N 27°48' W 082°24'0 0.0
2017-Mar-31 16:28N 27°48' W 082°24'0 0.0
2017-Mar-31 15:58N 27°48' W 082°24'0 0.0
2017-Mar-31 15:28N 27°48' W 082°24'0 0.0
2017-Mar-31 14:58N 27°48' W 082°24'0 0.0
2017-Mar-31 13:58N 27°48' W 082°24'0 0.0
2017-Mar-31 13:28N 27°48' W 082°24'0 0.0
2017-Mar-31 12:58N 27°48' W 082°24'0 0.0
2017-Mar-31 12:28N 27°48' W 082°24'0 0.0
2017-Mar-31 11:58N 27°48' W 082°24'0 0.0
2017-Mar-31 11:28N 27°48' W 082°24'0 0.0
2017-Mar-31 10:58N 27°48' W 082°24'0 0.0
2017-Mar-31 10:28N 27°48' W 082°24'0 0.0
2017-Mar-31 09:58N 27°48' W 082°24'0 0.0
2017-Mar-31 09:25N 27°48' W 082°24'0 0.0
2017-Mar-31 08:58N 27°48' W 082°24'0 0.0
2017-Mar-31 08:28N 27°48' W 082°24'0 0.0
2017-Mar-31 07:58N 27°48' W 082°24'0 0.0
2017-Mar-31 07:28N 27°48' W 082°24'0 0.0
2017-Mar-31 06:58N 27°48' W 082°24'0 0.0
2017-Mar-31 06:28N 27°48' W 082°24'0 0.0
2017-Mar-31 05:55N 27°48' W 082°24'0 0.0
2017-Mar-31 05:28N 27°48' W 082°24'0 0.0
2017-Mar-31 04:58N 27°48' W 082°24'0 0.0
2017-Mar-31 04:31N 27°48' W 082°24'0 0.0
2017-Mar-31 03:31N 27°48' W 082°24'0 0.0
2017-Mar-31 02:31N 27°48' W 082°24'0 0.0
2017-Mar-31 01:31N 27°48' W 082°24'0 0.0
2017-Mar-31 00:31N 27°48' W 082°24'0 0.0
2017-Mar-30 23:31N 27°48' W 082°24'0 0.0
2017-Mar-30 22:31N 27°48' W 082°24'0 0.0
2017-Mar-30 21:31N 27°48' W 082°24'0 0.0
2017-Mar-30 20:31N 27°48' W 082°24'0 0.0
2017-Mar-30 19:31N 27°48' W 082°24'0 0.0
2017-Mar-30 18:31N 27°48' W 082°24'0 0.0
2017-Mar-30 17:31N 27°48' W 082°24'0 0.0
2017-Mar-30 16:31N 27°48' W 082°24'0 0.0
2017-Mar-30 15:31N 27°48' W 082°24'0 0.0
2017-Mar-30 14:31N 27°48' W 082°24'0 0.0
2017-Mar-30 13:31N 27°48' W 082°24'0 0.0
2017-Mar-30 12:31N 27°48' W 082°24'0 0.0
2017-Mar-30 11:31N 27°48' W 082°24'0 0.0
2017-Mar-30 10:31N 27°48' W 082°24'0 0.0
2017-Mar-30 09:31N 27°48' W 082°24'0 0.2
2017-Mar-30 08:33N 27°48' W 082°25'2 2.1
2017-Mar-30 07:33N 27°49' W 082°27'4 3.5
2017-Mar-30 06:33N 27°51' W 082°24'0 0.1
2017-Mar-30 05:33N 27°51' W 082°24'0 0.0
2017-Mar-30 04:33N 27°51' W 082°24'0 0.0
2017-Mar-30 03:33N 27°51' W 082°24'0 0.0
2017-Mar-30 02:33N 27°51' W 082°24'0 0.0
2017-Mar-30 01:33N 27°51' W 082°24'0 0.0
2017-Mar-30 00:33N 27°51' W 082°24'0 0.0
2017-Mar-29 23:33N 27°51' W 082°24'0 0.0
2017-Mar-29 22:33N 27°51' W 082°24'0 0.0
2017-Mar-29 21:33N 27°51' W 082°24'0 0.0
2017-Mar-29 20:33N 27°51' W 082°24'0 0.0
2017-Mar-29 19:33N 27°51' W 082°24'0 0.0
2017-Mar-29 18:33N 27°51' W 082°24'0 0.0
2017-Mar-29 17:33N 27°51' W 082°24'0 0.0
2017-Mar-29 16:27N 27°51' W 082°24'0 0.0
2017-Mar-29 15:33N 27°51' W 082°24'0 0.0
2017-Mar-29 14:33N 27°51' W 082°24'0 0.0
2017-Mar-29 13:33N 27°51' W 082°24'0 0.0
2017-Mar-29 12:33N 27°51' W 082°24'0 0.0
2017-Mar-29 11:33N 27°51' W 082°24'0 0.0
2017-Mar-29 10:33N 27°51' W 082°24'0 0.0
2017-Mar-29 09:30N 27°51' W 082°24'0 0.0
2017-Mar-29 08:33N 27°51' W 082°24'0 0.0
2017-Mar-29 07:33N 27°51' W 082°24'0 0.0
2017-Mar-29 06:33N 27°51' W 082°24'0 0.0
2017-Mar-29 05:33N 27°51' W 082°24'0 0.0
2017-Mar-29 04:33N 27°51' W 082°24'0 0.0
2017-Mar-29 03:30N 27°51' W 082°24'0 0.0
2017-Mar-29 02:33N 27°51' W 082°24'0 0.0
2017-Mar-29 01:33N 27°51' W 082°24'0 0.0
2017-Mar-29 00:33N 27°51' W 082°24'0 0.0
2017-Mar-28 23:33N 27°51' W 082°24'0 0.0
2017-Mar-28 22:33N 27°51' W 082°24'0 0.0
2017-Mar-28 21:33N 27°51' W 082°24'0 0.0
2017-Mar-28 20:30N 27°51' W 082°24'0 0.0
2017-Mar-28 19:33N 27°51' W 082°24'0 0.0
2017-Mar-28 18:33N 27°51' W 082°24'0 0.0
2017-Mar-28 17:33N 27°51' W 082°24'0 0.0
2017-Mar-28 16:33N 27°51' W 082°24'0 0.0
2017-Mar-28 15:33N 27°51' W 082°24'0 0.0
2017-Mar-28 14:33N 27°51' W 082°24'0 0.0
2017-Mar-28 13:33N 27°51' W 082°24'0 0.0
2017-Mar-28 12:33N 27°51' W 082°24'0 0.0
2017-Mar-28 11:33N 27°51' W 082°24'0 0.0
2017-Mar-28 10:33N 27°51' W 082°24'0 0.0
2017-Mar-28 09:33N 27°51' W 082°24'0 0.0
2017-Mar-28 08:33N 27°51' W 082°24'0 0.0
2017-Mar-28 07:33N 27°51' W 082°24'0 0.0
2017-Mar-28 06:33N 27°51' W 082°24'0 0.0
2017-Mar-28 05:33N 27°51' W 082°24'0 0.0
2017-Mar-28 04:33N 27°51' W 082°24'0 0.0
2017-Mar-28 03:33N 27°51' W 082°24'0 0.0
2017-Mar-28 02:33N 27°51' W 082°24'0 0.0
2017-Mar-28 01:33N 27°51' W 082°24'0 0.0
2017-Mar-28 00:33N 27°51' W 082°24'0 0.0
2017-Mar-27 23:33N 27°51' W 082°24'0 0.0
2017-Mar-27 22:33N 27°51' W 082°24'0 0.0
2017-Mar-27 21:33N 27°51' W 082°24'0 0.0
2017-Mar-27 20:33N 27°51' W 082°24'  

Dump ship's entire track history